Time;durP1;ratioP1;P1;durP2;ratioP2;P2;SDS_P1;SDS_P2;PMS_P1;PMS_P2;Temp;Humidity;BMP_temperature;BMP_pressure;BME280_temperature;BME280_humidity;BME280_pressure;Samples;Min_cycle;Max_cycle;Signal;HPM_P1;HPM_P2
2021/12/18 00:00:19;;;;;;;;;38.67;30.33;;;;;7.66;72.40;103140.66;4977721;28;47627;-65
2021/12/18 00:02:44;;;;;;;;;30.00;29.00;;;;;7.55;72.11;103128.72;4978080;28;45355;-66
2021/12/18 00:05:09;;;;;;;;;40.67;35.00;;;;;7.59;72.01;103127.66;4979233;28;45571;-66
2021/12/18 00:07:35;;;;;;;;;33.00;31.33;;;;;7.68;71.89;103131.69;4996726;28;45384;-65
2021/12/18 00:10:02;;;;;;;;;29.33;28.33;;;;;7.78;71.73;103153.34;4997596;28;46696;-65
2021/12/18 00:12:28;;;;;;;;;28.00;24.33;;;;;7.82;71.91;103147.00;4996054;28;45430;-66
2021/12/18 00:14:53;;;;;;;;;35.33;29.67;;;;;7.78;71.60;103148.03;4990625;28;45488;-65
2021/12/18 00:17:19;;;;;;;;;24.33;23.00;;;;;7.79;71.73;103147.97;4978241;28;45253;-66
2021/12/18 00:19:44;;;;;;;;;31.33;30.00;;;;;7.74;71.28;103135.88;4982010;28;45597;-65
2021/12/18 00:22:09;;;;;;;;;26.00;23.67;;;;;7.24;71.62;103070.09;4994740;28;45360;-65
2021/12/18 00:24:35;;;;;;;;;38.00;32.67;;;;;7.66;71.56;103138.84;4993770;28;45736;-66
2021/12/18 00:27:00;;;;;;;;;34.67;31.00;;;;;7.59;72.01;103142.66;4977616;28;45552;-65
2021/12/18 00:29:28;;;;;;;;;29.67;29.33;;;;;7.39;71.98;103108.25;4977376;28;45718;-65
2021/12/18 00:31:54;;;;;;;;;30.33;28.00;;;;;7.50;72.15;103133.34;4977306;28;45548;-66
2021/12/18 00:34:20;;;;;;;;;38.33;27.00;;;;;7.49;71.90;103130.78;4978638;28;45487;-65
2021/12/18 00:36:46;;;;;;;;;30.33;27.67;;;;;7.43;71.75;103125.75;4997125;28;45247;-65
2021/12/18 00:39:12;;;;;;;;;29.00;28.33;;;;;7.19;72.54;103114.38;4996849;28;45857;-65
2021/12/18 00:44:12;;;;;;;;;34.33;30.33;;;;;7.37;72.25;103134.78;4997039;28;45933;-67
2021/12/18 00:46:42;;;;;;;;;42.67;34.67;;;;;7.28;72.16;103124.59;4975169;28;45585;-65
2021/12/18 00:49:11;;;;;;;;;32.00;27.00;;;;;6.82;72.12;103033.09;4974660;28;46591;-65
2021/12/18 00:51:37;;;;;;;;;31.33;25.33;;;;;7.26;72.42;103105.28;4976158;28;45302;-66
2021/12/18 00:54:03;;;;;;;;;29.33;25.33;;;;;6.90;72.34;103038.91;4977297;28;45329;-65
2021/12/18 00:56:29;;;;;;;;;34.33;30.67;;;;;7.12;72.38;103082.06;4995149;28;45415;-65
2021/12/18 00:58:54;;;;;;;;;36.00;32.67;;;;;7.37;72.44;103120.69;4996651;28;45655;-64
2021/12/18 01:01:22;;;;;;;;;21.67;17.67;;;;;7.17;72.34;103097.72;4997014;28;45411;-66
2021/12/18 01:03:49;;;;;;;;;32.33;30.00;;;;;7.02;72.78;103075.44;4996968;28;45428;-64
2021/12/18 01:06:16;;;;;;;;;32.33;28.00;;;;;7.27;72.47;103125.53;4996448;28;45294;-65
2021/12/18 01:08:41;;;;;;;;;25.00;25.00;;;;;7.26;72.37;103123.81;4996652;28;45482;-66
2021/12/18 01:13:53;;;;;;;;;33.33;30.33;;;;;7.08;72.55;103116.63;4996806;28;45286;-65
2021/12/18 01:16:23;;;;;;;;;46.33;32.67;;;;;6.88;73.01;103078.66;4977321;28;45213;-65
2021/12/18 01:24:16;;;;;;;;;28.00;28.00;;;;;7.05;72.82;103140.59;4977002;28;45503;-64
2021/12/18 01:26:41;;;;;;;;;36.33;30.33;;;;;7.00;72.96;103135.44;4990567;28;45321;-65
2021/12/18 01:29:06;;;;;;;;;33.33;28.67;;;;;6.99;73.41;103131.09;4996497;28;46421;-66
2021/12/18 01:31:32;;;;;;;;;38.00;28.33;;;;;6.95;72.91;103113.63;4996538;28;45440;-66
2021/12/18 01:33:57;;;;;;;;;32.67;28.33;;;;;6.76;73.04;103086.22;4996671;28;45505;-65
2021/12/18 01:36:23;;;;;;;;;29.33;24.67;;;;;7.06;72.87;103131.72;4977409;28;45500;-65
2021/12/18 01:38:48;;;;;;;;;31.67;29.00;;;;;6.97;72.95;103139.09;4978269;28;46541;-66
2021/12/18 01:41:15;;;;;;;;;26.33;24.33;;;;;6.94;73.03;103148.94;4980077;28;45235;-66
2021/12/18 01:46:48;;;;;;;;;31.33;28.67;;;;;6.98;73.02;103146.09;4998850;28;45458;-65
2021/12/18 01:52:15;;;;;;;;;29.00;26.33;;;;;6.81;73.00;103116.84;4999438;28;45439;-66
2021/12/18 01:54:43;;;;;;;;;31.00;29.00;;;;;6.99;72.00;103131.09;4994665;28;45372;-66
2021/12/18 01:57:09;;;;;;;;;32.00;28.67;;;;;6.97;72.52;103136.44;4979936;28;45183;-66
2021/12/18 01:59:38;;;;;;;;;25.67;25.00;;;;;7.06;72.13;103131.72;4979735;28;47720;-65
2021/12/18 02:02:05;;;;;;;;;27.00;27.00;;;;;6.85;71.85;103113.16;4979839;28;45452;-64
2021/12/18 02:04:30;;;;;;;;;32.00;25.33;;;;;6.87;72.17;103137.75;4996157;28;45416;-65
2021/12/18 02:06:58;;;;;;;;;33.33;30.00;;;;;6.94;72.43;103136.56;4999719;28;45442;-65
2021/12/18 02:09:29;;;;;;;;;32.00;28.67;;;;;6.87;71.75;103131.59;4997978;28;47272;-66
2021/12/18 02:11:54;;;;;;;;;30.33;24.67;;;;;6.89;71.87;103130.63;4998211;28;45431;-65
2021/12/18 02:19:30;;;;;;;;;32.67;29.00;;;;;6.72;72.05;103118.06;4984378;28;45492;-65
2021/12/18 02:23:07;;;;;;;;;28.00;26.33;;;;;6.61;72.86;103135.28;4974904;28;45498;-65
2021/12/18 02:25:35;;;;;;;;;29.67;28.33;;;;;6.60;73.03;103144.09;4997930;28;45457;-65
2021/12/18 02:28:01;;;;;;;;;31.00;28.33;;;;;6.35;73.35;103112.50;4999399;28;45585;-64
2021/12/18 02:30:27;;;;;;;;;30.33;29.67;;;;;6.08;72.97;103064.22;4999032;28;46966;-65
2021/12/18 02:32:53;;;;;;;;;31.33;26.67;;;;;6.61;72.79;103141.44;4995869;28;45312;-65
2021/12/18 02:35:28;;;;;;;;;34.67;33.00;;;;;6.35;73.43;103118.63;4979431;28;45356;-65
2021/12/18 02:38:17;;;;;;;;;28.00;25.67;;;;;6.43;73.21;103152.72;4979656;28;45404;-65
2021/12/18 02:40:58;;;;;;;;;31.33;26.67;;;;;6.49;72.53;103147.19;4979189;28;46589;-66
2021/12/18 02:43:25;;;;;;;;;30.67;26.67;;;;;6.08;72.36;103077.44;4985536;28;45406;-64
2021/12/18 02:45:54;;;;;;;;;24.67;23.67;;;;;6.44;73.35;103132.44;4998819;28;45369;-65
2021/12/18 02:48:21;;;;;;;;;38.00;32.33;;;;;6.49;73.73;103141.03;4999196;28;45258;-65
2021/12/18 02:50:46;;;;;;;;;35.33;27.33;;;;;6.45;73.00;103137.66;4998308;28;46531;-66
2021/12/18 02:53:11;;;;;;;;;24.67;18.33;;;;;6.32;73.06;103123.19;4993701;28;45277;-66
2021/12/18 02:55:37;;;;;;;;;31.67;30.67;;;;;6.04;73.69;103062.63;4979331;28;45574;-66
2021/12/18 02:58:02;;;;;;;;;30.67;30.00;;;;;6.39;73.40;103145.78;4979359;28;45511;-65
2021/12/18 03:00:29;;;;;;;;;22.00;22.00;;;;;6.29;73.44;103128.59;4978963;28;46820;-65
2021/12/18 03:02:54;;;;;;;;;34.00;27.67;;;;;6.02;72.70;103077.66;4995274;28;45624;-66
2021/12/18 03:05:27;;;;;;;;;36.00;32.00;;;;;6.40;73.39;103132.53;4977857;28;45277;-65
2021/12/18 03:08:00;;;;;;;;;33.67;30.33;;;;;6.44;73.05;103145.66;4978023;28;45512;-65
2021/12/18 03:22:13;;;;;;;;;38.33;36.33;;;;;6.20;73.46;103150.03;4978515;28;45736;-64
2021/12/18 03:24:36;;;;;;;;;36.00;33.33;;;;;6.18;73.94;103158.03;4990480;28;45599;-66
2021/12/18 03:27:01;;;;;;;;;39.33;33.00;;;;;6.18;73.87;103147.47;4998143;28;45421;-65
2021/12/18 03:29:27;;;;;;;;;44.00;39.33;;;;;5.82;73.74;103077.50;4998494;28;45237;-67
2021/12/18 03:31:53;;;;;;;;;41.67;34.00;;;;;6.25;74.07;103148.13;4998172;28;45885;-64
2021/12/18 03:34:18;;;;;;;;;44.67;36.33;;;;;6.09;74.16;103135.47;4983487;28;45275;-65
2021/12/18 03:36:43;;;;;;;;;43.67;34.00;;;;;5.83;74.30;103071.31;4978758;28;45292;-66
2021/12/18 03:39:09;;;;;;;;;36.33;34.33;;;;;5.71;74.36;103068.19;4978784;28;45159;-65
2021/12/18 03:41:34;;;;;;;;;40.00;29.67;;;;;5.94;74.60;103133.38;4993505;28;47396;-64
2021/12/18 03:44:00;;;;;;;;;40.33;35.00;;;;;5.99;74.83;103149.06;4987900;28;45527;-66
2021/12/18 03:46:25;;;;;;;;;49.00;38.00;;;;;5.93;75.82;103136.94;4997760;28;45456;-65
2021/12/18 03:48:51;;;;;;;;;43.33;36.00;;;;;5.91;76.01;103127.34;4998125;28;45472;-66
2021/12/18 03:51:16;;;;;;;;;33.00;29.00;;;;;5.88;75.88;103123.03;4996684;28;47068;-65
2021/12/18 03:53:41;;;;;;;;;32.00;30.67;;;;;5.84;76.51;103105.56;4989835;28;45439;-64
2021/12/18 03:56:07;;;;;;;;;32.00;32.00;;;;;6.10;75.47;103128.41;4978332;28;45447;-65
2021/12/18 03:58:32;;;;;;;;;41.33;36.33;;;;;6.09;75.61;103116.13;4978558;28;45351;-64
2021/12/18 04:00:58;;;;;;;;;38.00;35.33;;;;;6.25;75.80;103121.69;4977330;28;45752;-65
2021/12/18 04:03:23;;;;;;;;;42.00;37.00;;;;;6.33;75.77;103115.19;4982736;28;45457;-65
2021/12/18 04:05:49;;;;;;;;;42.33;33.33;;;;;6.25;75.19;103090.84;4997640;28;45291;-65
2021/12/18 04:08:15;;;;;;;;;35.00;31.67;;;;;6.39;74.57;103114.94;4998021;28;45358;-64
2021/12/18 04:10:41;;;;;;;;;46.33;38.67;;;;;6.44;74.68;103113.94;4997616;28;45525;-65
2021/12/18 04:13:08;;;;;;;;;45.33;37.33;;;;;6.19;75.10;103085.78;4996044;28;45436;-63
2021/12/18 04:15:34;;;;;;;;;38.33;35.00;;;;;6.28;75.07;103085.44;4997779;28;45229;-63
2021/12/18 04:17:59;;;;;;;;;44.00;36.67;;;;;6.60;74.49;103125.59;4997641;28;45365;-65
2021/12/18 04:20:25;;;;;;;;;35.33;32.67;;;;;6.62;75.02;103122.00;4997336;28;46415;-65
2021/12/18 04:22:51;;;;;;;;;37.67;32.67;;;;;6.78;73.92;103124.88;4983980;28;45312;-65
2021/12/18 04:25:17;;;;;;;;;33.67;29.00;;;;;6.58;73.21;103058.72;4976644;28;45489;-65
2021/12/18 04:27:43;;;;;;;;;26.67;26.67;;;;;6.89;73.61;103112.09;4976489;28;45556;-65
2021/12/18 04:30:09;;;;;;;;;39.67;34.33;;;;;6.71;73.66;103118.13;4976165;28;46596;-65
2021/12/18 04:32:35;;;;;;;;;39.00;35.33;;;;;6.72;73.64;103119.84;4990539;28;45353;-66
2021/12/18 04:35:00;;;;;;;;;39.00;35.00;;;;;6.75;73.93;103122.38;4997141;28;45344;-66
2021/12/18 04:37:26;;;;;;;;;27.00;23.00;;;;;6.61;73.94;103095.63;4997605;28;45322;-65
2021/12/18 04:39:52;;;;;;;;;41.00;34.00;;;;;6.83;73.96;103128.22;4997079;28;45681;-64
2021/12/18 04:42:18;;;;;;;;;41.67;36.33;;;;;6.91;73.45;103120.84;4995428;28;45245;-64
2021/12/18 04:44:43;;;;;;;;;41.33;34.33;;;;;6.91;73.52;103118.19;4996974;28;45420;-66
2021/12/18 04:47:09;;;;;;;;;43.33;36.33;;;;;6.68;73.60;103083.88;4997529;28;45227;-64
2021/12/18 04:49:34;;;;;;;;;34.00;33.00;;;;;6.95;73.85;103117.13;4996978;28;46283;-65
2021/12/18 04:52:02;;;;;;;;;28.00;28.00;;;;;7.04;73.68;103128.28;4988523;28;45183;-65
2021/12/18 04:54:27;;;;;;;;;29.33;25.33;;;;;6.93;73.58;103110.19;4977549;28;45404;-65
2021/12/18 04:56:53;;;;;;;;;45.67;37.00;;;;;6.88;73.92;103118.31;4977548;28;45332;-66
2021/12/18 04:59:18;;;;;;;;;41.00;34.00;;;;;6.73;73.47;103089.84;4976973;28;46180;-64
2021/12/18 05:01:44;;;;;;;;;33.00;30.00;;;;;7.08;73.18;103130.72;4982253;28;45379;-65
2021/12/18 05:04:11;;;;;;;;;33.67;33.00;;;;;7.19;73.16;103138.19;4996836;28;45287;-65
2021/12/18 05:06:40;;;;;;;;;40.33;33.67;;;;;7.13;73.07;103133.19;4997284;28;45292;-65
2021/12/18 05:09:06;;;;;;;;;34.67;27.00;;;;;6.21;73.24;102966.91;4996448;28;45787;-66
2021/12/18 05:11:32;;;;;;;;;34.67;32.67;;;;;7.30;72.37;103142.13;4992592;28;45341;-64
2021/12/18 05:13:57;;;;;;;;;39.00;36.00;;;;;7.23;72.48;103139.81;4977918;28;45423;-64
2021/12/18 05:16:26;;;;;;;;;35.33;33.00;;;;;7.25;72.57;103137.97;4980817;28;45322;-65
2021/12/18 05:18:52;;;;;;;;;38.67;34.00;;;;;7.24;72.47;103144.19;4995647;28;47628;-65
2021/12/18 05:21:17;;;;;;;;;34.67;33.33;;;;;7.21;72.58;103136.38;4980871;28;46323;-64
2021/12/18 05:23:42;;;;;;;;;42.00;34.00;;;;;6.60;72.10;103018.09;4980722;28;45390;-64
2021/12/18 05:26:08;;;;;;;;;40.67;33.67;;;;;7.36;72.50;103140.16;4980811;28;45423;-66
2021/12/18 05:28:33;;;;;;;;;39.00;33.00;;;;;7.43;71.88;103142.50;4980209;28;46718;-65
2021/12/18 05:30:58;;;;;;;;;33.00;30.00;;;;;7.44;71.58;103138.91;4980227;28;45619;-65
2021/12/18 05:33:24;;;;;;;;;39.33;34.00;;;;;7.42;71.33;103135.47;4997676;28;45391;-65
2021/12/18 05:35:49;;;;;;;;;45.67;34.00;;;;;7.26;71.66;103102.66;4999033;28;45513;-66
2021/12/18 05:38:15;;;;;;;;;38.00;34.00;;;;;7.28;71.88;103129.91;4998482;28;46695;-65
2021/12/18 05:40:40;;;;;;;;;36.00;30.67;;;;;7.21;72.30;103141.69;4999902;28;45638;-65
2021/12/18 05:43:07;;;;;;;;;37.00;32.67;;;;;7.04;72.39;103112.41;4997943;28;45432;-65
2021/12/18 05:45:34;;;;;;;;;41.00;34.33;;;;;7.31;72.42;103137.72;4999805;28;45429;-65
2021/12/18 05:47:59;;;;;;;;;38.33;34.00;;;;;7.14;71.53;103105.78;4999483;28;46703;-65
2021/12/18 05:50:28;;;;;;;;;33.00;32.67;;;;;7.20;71.98;103124.06;4998369;28;45444;-65
2021/12/18 05:52:54;;;;;;;;;30.67;29.00;;;;;7.27;71.28;103122.88;4985662;28;45540;-65
2021/12/18 05:55:23;;;;;;;;;33.67;32.33;;;;;7.38;70.95;103123.28;4983316;28;45599;-69
2021/12/18 05:57:49;;;;;;;;;37.00;32.67;;;;;7.36;71.35;103122.50;4997793;28;48120;-65
2021/12/18 06:00:15;;;;;;;;;35.67;31.33;;;;;7.46;71.23;103147.66;4999517;28;46029;-65
2021/12/18 06:02:40;;;;;;;;;36.67;30.00;;;;;7.46;71.90;103129.13;4999779;28;45365;-65
2021/12/18 06:05:07;;;;;;;;;38.33;32.67;;;;;7.49;70.93;103134.28;4997973;28;45441;-66
2021/12/18 06:07:54;;;;;;;;;37.33;33.00;;;;;7.44;70.99;103136.28;4979488;28;47072;-64
2021/12/18 06:10:21;;;;;;;;;37.00;34.00;;;;;7.36;71.49;103129.56;4992532;28;45472;-65
2021/12/18 06:12:46;;;;;;;;;29.33;26.33;;;;;7.30;71.51;103128.03;4978393;28;45374;-65
2021/12/18 06:15:12;;;;;;;;;34.67;31.67;;;;;7.22;71.42;103124.88;4980784;28;45392;-65
2021/12/18 06:17:37;;;;;;;;;37.00;29.67;;;;;7.18;71.85;103131.19;4999317;28;46411;-65
2021/12/18 06:20:03;;;;;;;;;35.00;32.00;;;;;7.11;71.91;103124.44;4999233;28;45384;-65
2021/12/18 06:22:29;;;;;;;;;30.00;29.67;;;;;7.07;72.17;103120.22;4999216;28;45266;-65
2021/12/18 06:24:54;;;;;;;;;39.67;33.67;;;;;7.17;72.29;103125.03;4997591;28;45427;-66
2021/12/18 06:27:19;;;;;;;;;33.00;31.33;;;;;5.88;71.85;102897.75;4996080;28;46445;-67
2021/12/18 06:29:46;;;;;;;;;37.00;32.00;;;;;7.17;72.13;103125.03;4997725;28;45489;-65
2021/12/18 06:32:11;;;;;;;;;31.67;28.67;;;;;7.07;72.00;103117.56;4999359;28;45302;-66
2021/12/18 06:34:37;;;;;;;;;41.33;35.33;;;;;7.01;72.01;103123.97;4995611;28;45454;-65
2021/12/18 06:37:02;;;;;;;;;35.67;32.67;;;;;6.91;72.59;103122.63;4979066;28;45608;-66
2021/12/18 06:39:28;;;;;;;;;33.67;30.33;;;;;6.83;73.51;103120.28;4979296;28;45277;-65
2021/12/18 06:41:53;;;;;;;;;32.33;31.00;;;;;6.92;72.85;103127.84;4978937;28;45308;-65
2021/12/18 06:44:19;;;;;;;;;32.00;28.33;;;;;7.03;72.90;103126.56;4980184;28;45529;-66
2021/12/18 06:46:44;;;;;;;;;43.00;34.67;;;;;6.82;72.75;103105.34;4998478;28;46272;-67
2021/12/18 06:49:10;;;;;;;;;35.33;29.67;;;;;6.92;73.19;103129.63;4998879;28;45479;-66
2021/12/18 06:51:35;;;;;;;;;38.67;34.00;;;;;6.85;72.87;103133.44;4999042;28;45402;-66
2021/12/18 06:54:01;;;;;;;;;34.00;31.67;;;;;6.80;73.35;103112.47;4998971;28;45442;-65
2021/12/18 06:56:26;;;;;;;;;32.33;31.33;;;;;6.93;72.65;103137.50;4980267;28;48656;-66
2021/12/18 06:58:51;;;;;;;;;34.00;29.67;;;;;6.87;73.22;103121.88;4978521;28;45528;-66
2021/12/18 07:01:17;;;;;;;;;37.67;35.00;;;;;6.80;72.77;103138.03;4978901;28;45441;-66
2021/12/18 07:03:42;;;;;;;;;39.67;32.00;;;;;6.72;73.63;103131.28;4979381;28;45332;-66
2021/12/18 07:06:08;;;;;;;;;37.33;33.33;;;;;6.76;73.15;103131.16;4993305;28;46121;-66
2021/12/18 07:08:33;;;;;;;;;33.33;30.00;;;;;6.76;73.24;103128.50;4997622;28;45479;-65
2021/12/18 07:10:59;;;;;;;;;37.33;34.33;;;;;6.71;73.79;103128.69;4999726;28;45444;-65
2021/12/18 07:13:27;;;;;;;;;39.67;34.00;;;;;6.79;73.37;103139.81;4997603;28;45595;-65
2021/12/18 07:15:53;;;;;;;;;33.00;28.00;;;;;6.75;73.89;103135.59;4984262;28;46211;-66
2021/12/18 07:18:18;;;;;;;;;40.00;35.67;;;;;6.75;73.88;103143.50;4978735;28;45305;-66
2021/12/18 07:20:44;;;;;;;;;36.67;32.00;;;;;6.62;73.80;103137.00;4978750;28;45231;-66
2021/12/18 07:23:09;;;;;;;;;36.33;33.00;;;;;6.24;73.95;103085.63;4978843;28;45234;-65
2021/12/18 07:25:34;;;;;;;;;40.33;33.67;;;;;6.53;74.29;103132.91;4979450;28;45493;-65
2021/12/18 07:28:00;;;;;;;;;33.00;30.67;;;;;6.61;73.65;103149.38;4978432;28;45207;-65
2021/12/18 07:30:25;;;;;;;;;38.33;35.00;;;;;6.50;73.87;103132.19;4978599;28;45864;-65
2021/12/18 07:32:51;;;;;;;;;36.00;30.67;;;;;6.48;74.03;103144.59;4978863;28;45536;-64
2021/12/18 07:35:18;;;;;;;;;39.33;33.00;;;;;6.54;74.04;103147.00;4999918;28;45362;-66
2021/12/18 07:37:43;;;;;;;;;42.33;34.67;;;;;6.52;73.70;103147.06;4997489;28;45558;-66
2021/12/18 07:40:10;;;;;;;;;41.33;33.33;;;;;6.54;73.44;103154.94;4998177;28;45487;-65
2021/12/18 07:42:36;;;;;;;;;37.33;35.00;;;;;6.54;74.21;103161.06;4998456;28;45889;-65
2021/12/18 07:45:03;;;;;;;;;47.00;34.33;;;;;6.59;74.00;103164.38;4996839;28;45728;-66
2021/12/18 07:47:28;;;;;;;;;32.67;25.67;;;;;6.46;73.58;103143.81;4996024;28;45218;-65
2021/12/18 07:49:54;;;;;;;;;37.00;34.33;;;;;6.40;73.30;103127.25;4978287;28;45193;-66
2021/12/18 07:52:21;;;;;;;;;35.67;33.00;;;;;6.51;73.66;103165.63;4978450;28;45570;-66
2021/12/18 07:54:47;;;;;;;;;34.67;32.67;;;;;6.43;74.24;103155.34;4977777;28;45991;-64
2021/12/18 07:57:12;;;;;;;;;37.67;31.33;;;;;6.10;73.96;103107.28;4993058;28;45469;-66
2021/12/18 07:59:37;;;;;;;;;34.33;28.33;;;;;5.76;74.14;103052.19;4995067;28;45459;-66
2021/12/18 08:02:05;;;;;;;;;41.33;32.33;;;;;6.35;73.75;103145.06;4997947;28;45555;-65
2021/12/18 08:04:33;;;;;;;;;36.33;30.00;;;;;6.55;73.47;103161.94;4984085;28;45662;-67
2021/12/18 08:06:59;;;;;;;;;34.00;32.00;;;;;6.15;73.94;103094.75;4981129;28;45287;-66
2021/12/18 08:09:24;;;;;;;;;38.00;33.33;;;;;6.44;73.15;103150.94;4997366;28;45221;-65
2021/12/18 08:11:50;;;;;;;;;37.00;31.00;;;;;6.04;73.72;103070.56;4997623;28;45555;-65
2021/12/18 08:14:15;;;;;;;;;35.33;30.00;;;;;6.12;72.92;103094.88;4997431;28;45680;-65
2021/12/18 08:16:40;;;;;;;;;29.67;27.33;;;;;6.50;73.59;103159.47;4997444;28;45499;-66
2021/12/18 08:19:06;;;;;;;;;37.00;34.33;;;;;6.09;74.05;103095.00;4997531;28;45508;-67
2021/12/18 08:21:31;;;;;;;;;36.00;28.67;;;;;6.45;73.56;103153.50;4992822;28;45521;-66
2021/12/18 08:23:57;;;;;;;;;32.67;30.67;;;;;6.43;73.23;103158.00;4995548;28;46028;-65
2021/12/18 08:26:22;;;;;;;;;32.33;30.67;;;;;6.50;73.15;103159.47;4995839;28;45658;-68
2021/12/18 08:28:48;;;;;;;;;36.00;34.67;;;;;6.04;72.97;103089.03;4996996;28;45398;-70
2021/12/18 08:31:13;;;;;;;;;24.67;20.33;;;;;6.49;72.71;103144.53;4997456;28;45627;-69
2021/12/18 08:33:38;;;;;;;;;35.00;33.33;;;;;6.69;72.50;103176.34;4996717;28;45611;-68
2021/12/18 08:36:04;;;;;;;;;30.67;27.00;;;;;6.64;72.20;103173.03;4997247;28;45511;-69
2021/12/18 08:38:30;;;;;;;;;29.33;26.00;;;;;6.50;72.34;103127.75;4997382;28;45275;-65
2021/12/18 08:40:55;;;;;;;;;37.33;31.33;;;;;6.63;71.99;103144.00;4997377;28;45502;-70
2021/12/18 08:43:21;;;;;;;;;31.33;29.00;;;;;6.58;71.81;103145.94;4995833;28;47360;-68
2021/12/18 08:45:46;;;;;;;;;37.67;30.67;;;;;6.75;71.97;103175.25;4996954;28;45453;-69
2021/12/18 08:48:12;;;;;;;;;40.00;35.00;;;;;6.76;72.17;103161.09;4994769;28;45581;-70
2021/12/18 08:50:37;;;;;;;;;32.67;25.00;;;;;6.95;71.26;103155.94;4997252;28;46050;-69
2021/12/18 08:53:03;;;;;;;;;34.00;28.33;;;;;7.13;70.71;103176.38;4996034;28;45445;-68
2021/12/18 08:55:28;;;;;;;;;34.00;30.33;;;;;7.21;70.37;103160.19;4995448;28;45421;-67
2021/12/18 08:57:54;;;;;;;;;34.67;30.00;;;;;7.37;69.82;103178.91;4995098;28;45448;-67
2021/12/18 09:00:23;;;;;;;;;37.67;34.00;;;;;7.44;69.49;103178.63;4994956;28;45413;-65
2021/12/18 09:02:52;;;;;;;;;33.00;29.67;;;;;7.44;69.29;103153.94;4996003;28;47500;-66
2021/12/18 09:05:18;;;;;;;;;31.67;27.33;;;;;7.54;68.50;103172.00;4996311;28;45274;-64
2021/12/18 09:07:43;;;;;;;;;36.67;31.00;;;;;7.58;68.48;103167.44;4991534;28;45524;-67
2021/12/18 09:10:10;;;;;;;;;35.00;31.00;;;;;7.65;67.88;103170.69;4981919;28;46422;-66
2021/12/18 09:12:35;;;;;;;;;29.33;28.67;;;;;7.55;67.51;103163.13;4990605;28;47366;-64
2021/12/18 09:15:01;;;;;;;;;24.67;23.00;;;;;7.61;68.27;103162.88;4993669;28;45277;-63
2021/12/18 09:17:27;;;;;;;;;31.00;29.67;;;;;7.58;68.07;103135.66;4989190;28;45432;-64
2021/12/18 09:19:52;;;;;;;;;36.00;30.33;;;;;7.68;67.79;103149.38;4975471;28;45358;-65
2021/12/18 09:22:18;;;;;;;;;33.33;24.00;;;;;7.48;67.14;103132.56;4976474;28;46299;-65
2021/12/18 09:24:45;;;;;;;;;27.67;24.67;;;;;7.57;67.76;103134.81;4976304;28;45532;-69
2021/12/18 09:27:11;;;;;;;;;29.33;26.33;;;;;7.87;66.85;103152.94;4980444;28;45304;-65
2021/12/18 09:29:36;;;;;;;;;32.00;30.00;;;;;7.41;67.10;103085.22;4994695;28;45445;-65
2021/12/18 09:32:02;;;;;;;;;33.33;31.67;;;;;7.76;67.60;103156.06;4986234;28;47363;-64
2021/12/18 09:34:30;;;;;;;;;34.67;31.67;;;;;7.59;67.63;103132.94;4996038;28;45492;-65
2021/12/18 09:36:56;;;;;;;;;28.00;27.00;;;;;7.55;67.76;103123.41;4995938;28;45318;-65
2021/12/18 09:39:21;;;;;;;;;37.00;31.67;;;;;7.22;66.75;103054.31;4995630;28;45479;-64
2021/12/18 09:41:51;;;;;;;;;33.00;31.33;;;;;7.71;67.76;103146.59;4994687;28;45601;-65
2021/12/18 09:44:28;;;;;;;;;40.00;33.00;;;;;7.63;68.10;103145.16;4980080;28;45539;-67
2021/12/18 09:46:55;;;;;;;;;29.00;27.67;;;;;7.57;67.68;103139.22;4973225;28;45450;-66
2021/12/18 09:49:21;;;;;;;;;34.00;29.33;;;;;7.63;67.69;103149.59;4974053;28;45540;-66
2021/12/18 09:51:47;;;;;;;;;38.00;33.67;;;;;7.31;67.25;103079.50;4978727;28;45928;-66
2021/12/18 09:54:13;;;;;;;;;32.33;31.67;;;;;7.72;68.08;103143.00;4994426;28;45496;-66
2021/12/18 09:56:39;;;;;;;;;30.33;25.33;;;;;7.72;67.28;103145.66;4995891;28;45281;-65
2021/12/18 09:59:05;;;;;;;;;42.33;34.33;;;;;7.64;67.52;103135.41;4995097;28;45390;-64
2021/12/18 10:01:31;;;;;;;;;39.33;31.67;;;;;7.62;68.26;103129.34;4999193;28;45738;-66
2021/12/18 10:03:59;;;;;;;;;29.33;22.33;;;;;7.68;67.45;103133.50;4998977;28;45376;-66
2021/12/18 10:06:44;;;;;;;;;28.33;28.33;;;;;7.74;67.12;103135.88;4998785;28;45238;-65
2021/12/18 10:09:11;;;;;;;;;32.00;28.33;;;;;7.53;67.26;103100.59;4983711;28;45462;-66
2021/12/18 10:11:54;;;;;;;;;38.00;30.33;;;;;7.72;67.88;103140.38;4994028;28;46394;-65
2021/12/18 10:14:33;;;;;;;;;34.00;29.33;;;;;7.70;67.18;103132.50;4979367;28;45278;-65
2021/12/18 10:16:58;;;;;;;;;28.67;28.67;;;;;7.63;68.10;103126.63;4982856;28;45250;-64
2021/12/18 10:19:33;;;;;;;;;38.33;35.00;;;;;7.70;67.08;103121.91;4997995;28;45584;-66
2021/12/18 10:22:02;;;;;;;;;38.67;27.67;;;;;7.63;66.80;103123.09;4993303;28;47297;-66
2021/12/18 10:24:28;;;;;;;;;32.00;29.00;;;;;7.59;67.13;103111.78;4979517;28;45527;-65
2021/12/18 10:26:54;;;;;;;;;37.00;30.67;;;;;7.39;67.11;103066.78;4985633;28;45544;-65
2021/12/18 10:29:24;;;;;;;;;39.67;33.33;;;;;7.82;66.71;103131.09;4998824;28;45523;-66
2021/12/18 10:31:50;;;;;;;;;27.67;23.67;;;;;7.79;66.71;103112.69;4997088;28;46575;-65
2021/12/18 10:34:24;;;;;;;;;30.00;27.00;;;;;7.91;66.87;103117.44;4997044;28;46095;-65
2021/12/18 10:37:10;;;;;;;;;33.00;31.67;;;;;8.00;66.49;103121.44;4998386;28;45365;-68
2021/12/18 10:39:38;;;;;;;;;32.67;27.67;;;;;7.90;66.65;103102.47;4996731;28;45388;-68
2021/12/18 10:42:18;;;;;;;;;48.00;33.00;;;;;7.97;66.66;103098.63;4978744;28;46418;-66
2021/12/18 10:45:14;;;;;;;;;29.33;27.33;;;;;7.96;65.95;103120.75;4987511;28;45325;-67
2021/12/18 10:47:49;;;;;;;;;31.67;31.00;;;;;7.92;65.66;103113.88;4997855;28;45544;-65
2021/12/18 10:50:21;;;;;;;;;33.33;28.00;;;;;7.91;66.39;103113.00;4997542;28;45313;-73
2021/12/18 10:52:55;;;;;;;;;21.00;21.00;;;;;7.88;66.13;103120.22;4995212;28;45605;-75
2021/12/18 10:55:39;;;;;;;;;30.33;22.67;;;;;7.92;66.10;103108.56;4985676;28;45678;-69
2021/12/18 10:58:08;;;;;;;;;41.33;32.00;;;;;7.99;66.35;103109.13;4991538;28;45461;-70
2021/12/18 11:00:48;;;;;;;;;36.00;29.33;;;;;8.02;65.74;103101.09;4991413;28;45523;-68
2021/12/18 11:03:43;;;;;;;;;31.67;26.00;;;;;8.11;65.79;103098.00;4980316;28;45633;-65
2021/12/18 11:06:20;;;;;;;;;32.00;27.00;;;;;7.92;65.28;103042.34;4972647;28;45235;-66
2021/12/18 11:09:13;;;;;;;;;26.33;24.00;;;;;8.25;64.58;103090.28;4978311;28;45417;-64
2021/12/18 11:14:20;;;;;;;;;29.33;26.67;;;;;8.09;64.90;103076.88;4988662;28;47613;-65
2021/12/18 11:16:48;;;;;;;;;19.33;17.33;;;;;7.81;65.32;103026.13;4987831;28;45475;-64
2021/12/18 11:19:20;;;;;;;;;30.67;27.67;;;;;8.19;64.88;103075.50;4987155;28;45479;-65
2021/12/18 11:21:55;;;;;;;;;28.00;25.67;;;;;8.17;64.32;103072.06;4981792;28;45494;-67
2021/12/18 11:24:28;;;;;;;;;22.67;22.00;;;;;8.25;64.23;103079.69;4978203;28;46547;-66
2021/12/18 11:27:01;;;;;;;;;33.33;33.00;;;;;8.11;64.46;103069.72;4977530;28;45498;-66
2021/12/18 11:29:34;;;;;;;;;26.33;24.00;;;;;8.29;65.02;103096.28;4994086;28;45580;-63
2021/12/18 11:32:00;;;;;;;;;32.33;30.67;;;;;8.32;64.58;103093.50;4981845;28;45403;-66
2021/12/18 11:34:26;;;;;;;;;28.67;26.67;;;;;8.44;64.41;103090.31;4995109;28;45656;-67
2021/12/18 11:36:52;;;;;;;;;23.33;22.33;;;;;8.28;64.21;103046.88;4997643;28;45820;-67
2021/12/18 11:39:23;;;;;;;;;27.33;26.00;;;;;8.24;64.09;103048.81;4997327;28;45567;-68
2021/12/18 11:41:52;;;;;;;;;34.33;29.00;;;;;8.37;63.84;103051.75;4997901;28;45172;-66
2021/12/18 11:44:28;;;;;;;;;30.67;30.00;;;;;8.45;63.78;103062.88;4990747;28;46763;-67
2021/12/18 11:46:54;;;;;;;;;35.00;28.00;;;;;8.31;63.69;103034.31;4944103;28;45364;-66
2021/12/18 11:49:22;;;;;;;;;28.67;25.33;;;;;8.39;63.74;103026.03;4938861;28;45402;-66
2021/12/18 11:52:05;;;;;;;;;29.67;26.67;;;;;8.44;63.41;103010.78;4939301;28;45214;-66
2021/12/18 11:54:48;;;;;;;;;28.33;28.33;;;;;8.69;63.42;103061.66;4938907;28;46604;-65